Time;durP1;ratioP1;P1;durP2;ratioP2;P2;SDS_P1;SDS_P2;PMS_P1;PMS_P2;Temp;Humidity;BMP_temperature;BMP_pressure;BME280_temperature;BME280_humidity;BME280_pressure;Samples;Min_cycle;Max_cycle;Signal;HPM_P1;HPM_P2
2021/05/30 00:02:21;;;;;;;4.55;1.65;;;461.20;1484.80;;;;;;5075453;28;20035;-77
2021/05/30 00:04:47;;;;;;;2.65;1.70;;;461.20;1510.40;;;;;;5075470;28;20017;-77
2021/05/30 00:07:13;;;;;;;2.00;1.80;;;461.30;1510.40;;;;;;5075388;28;20027;-77
2021/05/30 00:09:39;;;;;;;2.33;1.80;;;461.30;1510.40;;;;;;5074113;28;20044;-77
2021/05/30 00:12:09;;;;;;;4.22;1.73;;;461.30;1484.80;;;;;;5075264;28;20841;-77
2021/05/30 00:14:35;;;;;;;1.73;1.40;;;461.30;1510.40;;;;;;5073441;28;20040;-77
2021/05/30 00:17:01;;;;;;;2.92;1.60;;;461.30;1510.40;;;;;;5073922;28;20025;-78
2021/05/30 00:19:27;;;;;;;1.92;1.83;;;461.30;1510.40;;;;;;5073100;28;20028;-78
2021/05/30 00:21:53;;;;;;;2.85;1.70;;;461.20;1536.00;;;;;;5073821;28;20796;-77
2021/05/30 00:24:19;;;;;;;4.72;1.80;;;461.20;1536.00;;;;;;5074880;28;20477;-78
2021/05/30 00:26:45;;;;;;;1.92;1.83;;;461.10;1536.00;;;;;;5073145;28;20086;-78
2021/05/30 00:29:11;;;;;;;1.80;1.70;;;461.10;1536.00;;;;;;5075049;28;20071;-78
2021/05/30 00:31:37;;;;;;;3.92;1.67;;;461.10;1536.00;;;;;;5073195;28;20029;-78
2021/05/30 00:34:03;;;;;;;4.22;2.05;;;461.00;1561.60;;;;;;5073084;28;20072;-76
2021/05/30 00:36:28;;;;;;;2.70;1.52;;;461.00;1561.60;;;;;;5073103;28;20477;-76
2021/05/30 00:38:55;;;;;;;2.90;1.75;;;461.00;1561.60;;;;;;5073506;28;20064;-77
2021/05/30 00:41:20;;;;;;;1.45;1.35;;;461.00;1587.20;;;;;;5073519;28;20143;-77
2021/05/30 00:43:49;;;;;;;2.25;2.10;;;460.90;1587.20;;;;;;5075025;28;20020;-76
2021/05/30 00:46:15;;;;;;;1.90;1.80;;;461.00;1587.20;;;;;;5073277;28;20109;-78
2021/05/30 00:48:42;;;;;;;2.13;1.60;;;461.00;1587.20;;;;;;5074986;28;20437;-77
2021/05/30 00:51:07;;;;;;;2.88;2.00;;;461.00;1587.20;;;;;;5074723;28;20392;-78
2021/05/30 00:53:37;;;;;;;1.95;1.85;;;461.00;1612.80;;;;;;5073264;28;20025;-77
2021/05/30 00:56:05;;;;;;;4.40;1.77;;;461.00;1638.40;;;;;;5073256;28;20031;-77
2021/05/30 00:58:31;;;;;;;2.63;1.77;;;461.00;1612.80;;;;;;5074495;28;20031;-77
2021/05/30 01:00:57;;;;;;;4.68;1.65;;;461.00;1612.80;;;;;;5073128;28;20037;-77
2021/05/30 01:03:22;;;;;;;3.00;2.15;;;461.00;1612.80;;;;;;5074584;28;20024;-77
2021/05/30 01:05:48;;;;;;;3.28;2.10;;;460.90;1612.80;;;;;;5073167;28;20472;-78
2021/05/30 01:08:26;;;;;;;3.65;1.90;;;460.90;1612.80;;;;;;5074269;28;20021;-77
2021/05/30 01:10:54;;;;;;;2.55;2.05;;;460.90;1638.40;;;;;;5074292;28;20029;-77
2021/05/30 01:13:20;;;;;;;4.75;1.80;;;460.90;1664.00;;;;;;5072882;28;20086;-78
2021/05/30 01:15:47;;;;;;;2.35;2.20;;;460.90;1664.00;;;;;;5071477;28;20025;-77
2021/05/30 01:18:25;;;;;;;2.05;1.50;;;460.90;1664.00;;;;;;5074058;28;20020;-77
2021/05/30 01:20:53;;;;;;;2.70;1.83;;;460.90;1664.00;;;;;;5072838;28;20067;-78
2021/05/30 01:23:19;;;;;;;2.60;2.40;;;460.80;1638.40;;;;;;5072487;28;20488;-77
2021/05/30 01:25:46;;;;;;;2.50;2.30;;;460.80;1612.80;;;;;;5073490;28;20032;-77
2021/05/30 01:28:15;;;;;;;4.10;2.10;;;436.10;1561.60;;;;;;5075084;28;20172;-78
2021/05/30 01:30:42;;;;;;;2.35;2.10;;;460.80;1587.20;;;;;;5073012;28;20086;-78
2021/05/30 01:33:08;;;;;;;3.63;2.20;;;460.80;1561.60;;;;;;5074066;28;20447;-77
2021/05/30 01:35:33;;;;;;;5.10;2.78;;;460.80;1561.60;;;;;;5074409;28;20023;-77
2021/05/30 01:37:59;;;;;;;2.60;2.22;;;436.10;1536.00;;;;;;5094396;28;20013;-78
2021/05/30 01:40:25;;;;;;;5.05;2.28;;;436.10;1536.00;;;;;;5096824;28;20016;-78
2021/05/30 01:42:54;;;;;;;4.85;3.03;;;436.10;1536.00;;;;;;5098321;28;20027;-78
2021/05/30 01:45:21;;;;;;;3.45;2.60;;;436.10;1510.40;;;;;;5081447;28;20037;-77
2021/05/30 01:47:48;;;;;;;2.53;2.33;;;436.00;1510.40;;;;;;5072259;28;20111;-77
2021/05/30 01:50:24;;;;;;;4.45;2.40;;;436.00;1510.40;;;;;;5073764;28;20016;-77
2021/05/30 01:52:50;;;;;;;4.13;1.98;;;436.00;1510.40;;;;;;5072346;28;20043;-78
2021/05/30 01:57:50;;;;;;;3.20;1.88;;;435.90;1536.00;;;;;;5072927;28;20025;-78
2021/05/30 02:00:17;;;;;;;2.90;2.40;;;435.80;1536.00;;;;;;5072124;28;20020;-77
2021/05/30 02:02:45;;;;;;;3.17;2.50;;;435.90;1536.00;;;;;;5073390;28;20516;-77
2021/05/30 02:05:12;;;;;;;2.75;2.30;;;435.90;1536.00;;;;;;5073365;28;20043;-78
2021/05/30 02:07:39;;;;;;;4.78;1.80;;;435.90;1536.00;;;;;;5072203;28;20028;-78
2021/05/30 02:10:07;;;;;;;2.85;2.58;;;435.90;1536.00;;;;;;5073200;28;20100;-77
2021/05/30 02:12:34;;;;;;;3.40;2.17;;;435.80;1536.00;;;;;;5071736;28;20388;-76
2021/05/30 02:15:00;;;;;;;2.40;2.28;;;435.80;1536.00;;;;;;5073251;28;20027;-77
2021/05/30 02:17:27;;;;;;;2.28;2.05;;;435.80;1536.00;;;;;;5071965;28;20025;-77
2021/05/30 02:19:53;;;;;;;1.98;1.88;;;435.70;1561.60;;;;;;5073166;28;20036;-77
2021/05/30 02:22:19;;;;;;;4.60;2.10;;;435.80;1561.60;;;;;;5073263;28;20089;-76
2021/05/30 02:24:45;;;;;;;2.03;1.88;;;435.80;1561.60;;;;;;5073398;28;20469;-77
2021/05/30 02:27:11;;;;;;;2.17;1.73;;;435.70;1561.60;;;;;;5071862;28;20119;-77
2021/05/30 02:29:39;;;;;;;2.08;1.92;;;435.70;1587.20;;;;;;5071796;28;20082;-77
2021/05/30 02:32:07;;;;;;;4.25;2.45;;;435.80;1561.60;;;;;;5073161;28;20044;-77
2021/05/30 02:34:34;;;;;;;4.28;2.58;;;435.70;1587.20;;;;;;5072885;28;20107;-76
2021/05/30 02:37:01;;;;;;;4.97;4.57;;;435.70;1587.20;;;;;;5073024;28;20028;-77
2021/05/30 02:39:27;;;;;;;4.10;3.80;;;435.70;1561.60;;;;;;5072353;28;20048;-78
2021/05/30 02:41:52;;;;;;;5.47;3.53;;;435.60;1561.60;;;;;;5071689;28;20059;-77
2021/05/30 02:44:18;;;;;;;2.92;2.55;;;435.60;1561.60;;;;;;5074168;28;20068;-77
2021/05/30 02:46:44;;;;;;;3.60;1.90;;;435.50;1561.60;;;;;;5075127;28;20402;-78
2021/05/30 02:49:10;;;;;;;3.40;2.22;;;435.50;1561.60;;;;;;5077063;28;20480;-77
2021/05/30 02:51:35;;;;;;;1.75;1.65;;;435.50;1536.00;;;;;;5075511;28;20090;-77
2021/05/30 02:54:01;;;;;;;1.63;1.52;;;435.50;1536.00;;;;;;5075333;28;20492;-77
2021/05/30 02:56:27;;;;;;;5.53;1.50;;;435.30;1561.60;;;;;;5076313;28;20032;-77
2021/05/30 02:58:53;;;;;;;2.90;1.40;;;435.40;1536.00;;;;;;5076609;28;20025;-77
2021/05/30 03:01:19;;;;;;;5.40;2.20;;;435.30;1561.60;;;;;;5076669;28;20079;-78
2021/05/30 03:03:45;;;;;;;1.75;1.65;;;435.30;1561.60;;;;;;5076156;28;20028;-77
2021/05/30 03:06:10;;;;;;;2.05;1.88;;;435.30;1536.00;;;;;;5075183;28;20029;-77
2021/05/30 03:08:36;;;;;;;2.60;1.08;;;435.30;1561.60;;;;;;5075076;28;20032;-77
2021/05/30 03:11:02;;;;;;;3.55;1.67;;;435.20;1561.60;;;;;;5075064;28;20041;-78
2021/05/30 03:13:29;;;;;;;1.80;1.60;;;435.30;1536.00;;;;;;5076203;28;20500;-78
2021/05/30 03:15:54;;;;;;;1.30;1.30;;;435.30;1536.00;;;;;;5076579;28;20016;-78
2021/05/30 03:18:20;;;;;;;1.55;1.15;;;435.20;1536.00;;;;;;5076125;28;20017;-78
2021/05/30 03:20:46;;;;;;;3.33;1.50;;;435.20;1536.00;;;;;;5075208;28;20083;-77
2021/05/30 03:23:12;;;;;;;1.42;1.33;;;435.20;1561.60;;;;;;5075107;28;20035;-77
2021/05/30 03:25:38;;;;;;;3.72;1.52;;;435.20;1561.60;;;;;;5074393;28;20039;-78
2021/05/30 03:28:04;;;;;;;1.13;1.10;;;435.20;1536.00;;;;;;5074291;28;20496;-77
2021/05/30 03:30:30;;;;;;;2.17;1.30;;;435.20;1561.60;;;;;;5074800;28;20496;-77
2021/05/30 03:32:56;;;;;;;5.85;1.73;;;410.50;1561.60;;;;;;5075745;28;20094;-77
2021/05/30 03:35:22;;;;;;;2.33;2.05;;;410.50;1536.00;;;;;;5074176;28;20392;-78
2021/05/30 03:37:48;;;;;;;3.03;1.63;;;410.50;1561.60;;;;;;5074673;28;20541;-77
2021/05/30 03:40:29;;;;;;;1.20;1.20;;;410.40;1561.60;;;;;;5075812;28;20021;-77
2021/05/30 03:42:56;;;;;;;1.33;1.23;;;410.30;1561.60;;;;;;5076072;28;20521;-77
2021/05/30 03:45:23;;;;;;;2.75;1.75;;;410.30;1561.60;;;;;;5075717;28;20461;-77
2021/05/30 03:47:49;;;;;;;1.95;1.60;;;410.30;1561.60;;;;;;5074541;28;20040;-77
2021/05/30 03:50:17;;;;;;;3.30;1.50;;;410.30;1587.20;;;;;;5075956;28;20021;-77
2021/05/30 03:52:42;;;;;;;1.30;1.20;;;410.20;1587.20;;;;;;5074437;28;20499;-77
2021/05/30 03:55:10;;;;;;;1.77;1.30;;;410.20;1587.20;;;;;;5074294;28;20029;-78
2021/05/30 03:57:36;;;;;;;2.60;1.60;;;410.20;1587.20;;;;;;5074438;28;20067;-77
2021/05/30 04:00:05;;;;;;;3.92;1.60;;;410.20;1587.20;;;;;;5075727;28;20017;-78
2021/05/30 04:02:31;;;;;;;4.82;1.77;;;410.20;1587.20;;;;;;5073683;28;20404;-78
2021/05/30 04:04:56;;;;;;;2.60;2.40;;;410.10;1587.20;;;;;;5075278;28;20027;-77
2021/05/30 04:07:22;;;;;;;3.00;1.60;;;410.20;1612.80;;;;;;5073693;28;20064;-76
2021/05/30 04:09:48;;;;;;;3.53;2.20;;;410.10;1612.80;;;;;;5074016;28;20051;-77
2021/05/30 04:12:13;;;;;;;2.70;1.75;;;410.20;1587.20;;;;;;5073871;28;20063;-77
2021/05/30 04:14:39;;;;;;;4.38;2.10;;;410.10;1612.80;;;;;;5073921;28;20029;-77
2021/05/30 04:17:05;;;;;;;2.75;1.73;;;410.10;1612.80;;;;;;5075247;28;20777;-78
2021/05/30 04:19:31;;;;;;;1.98;1.80;;;410.10;1612.80;;;;;;5073780;28;20037;-78
2021/05/30 04:21:56;;;;;;;3.63;1.80;;;410.10;1612.80;;;;;;5073839;28;20060;-78
2021/05/30 04:24:22;;;;;;;2.17;1.92;;;410.10;1612.80;;;;;;5073796;28;20059;-78
2021/05/30 04:26:48;;;;;;;4.82;2.55;;;410.10;1612.80;;;;;;5073736;28;20119;-78
2021/05/30 04:29:14;;;;;;;2.75;2.28;;;410.20;1612.80;;;;;;5073808;28;20032;-79
2021/05/30 04:31:39;;;;;;;3.47;2.17;;;410.20;1612.80;;;;;;5073686;28;20021;-78
2021/05/30 04:34:05;;;;;;;2.45;1.90;;;410.20;1612.80;;;;;;5056742;28;20097;-77
2021/05/30 04:36:31;;;;;;;3.15;2.00;;;410.20;1612.80;;;;;;5073434;28;20123;-77
2021/05/30 04:38:57;;;;;;;2.95;1.80;;;410.20;1612.80;;;;;;5074759;28;20143;-77
2021/05/30 04:41:23;;;;;;;3.85;1.27;;;410.30;1612.80;;;;;;5073431;28;20476;-77
2021/05/30 04:43:49;;;;;;;1.58;1.42;;;410.40;1612.80;;;;;;5073302;28;20074;-77
2021/05/30 04:46:15;;;;;;;2.60;1.70;;;435.20;1587.20;;;;;;5073569;28;20514;-77
2021/05/30 04:48:41;;;;;;;1.52;1.40;;;435.30;1587.20;;;;;;5072873;28;20071;-78
2021/05/30 04:51:12;;;;;;;3.45;1.85;;;435.20;1612.80;;;;;;5073307;28;20437;-78
2021/05/30 04:53:43;;;;;;;2.45;1.80;;;435.30;1587.20;;;;;;5074600;28;20020;-77
2021/05/30 04:56:10;;;;;;;3.22;1.50;;;435.30;1587.20;;;;;;5073005;28;20028;-77
2021/05/30 04:58:36;;;;;;;1.52;1.42;;;435.30;1587.20;;;;;;5073015;28;20016;-77
2021/05/30 05:01:04;;;;;;;1.40;1.33;;;435.40;1587.20;;;;;;5072824;28;20116;-77
2021/05/30 05:03:33;;;;;;;2.38;1.55;;;435.30;1587.20;;;;;;5072947;28;20025;-77
2021/05/30 05:05:59;;;;;;;4.85;1.35;;;435.50;1561.60;;;;;;5072692;28;20035;-77
2021/05/30 05:08:25;;;;;;;2.65;1.48;;;435.50;1561.60;;;;;;5072076;28;20032;-77
2021/05/30 05:10:51;;;;;;;3.55;1.40;;;435.60;1561.60;;;;;;5072703;28;20036;-77
2021/05/30 05:13:18;;;;;;;4.40;1.60;;;435.50;1561.60;;;;;;5072159;28;20040;-77
2021/05/30 05:15:45;;;;;;;3.90;1.45;;;435.50;1561.60;;;;;;5073709;28;20019;-77
2021/05/30 05:18:14;;;;;;;1.80;1.70;;;435.50;1561.60;;;;;;5073854;28;20028;-77
2021/05/30 05:20:39;;;;;;;5.15;1.85;;;435.50;1587.20;;;;;;5073823;28;20017;-77
2021/05/30 05:23:05;;;;;;;3.25;2.00;;;435.50;1561.60;;;;;;5072319;28;20488;-77
2021/05/30 05:25:34;;;;;;;2.63;1.42;;;435.50;1587.20;;;;;;5072372;28;20085;-77
2021/05/30 05:28:00;;;;;;;3.22;1.90;;;435.50;1587.20;;;;;;5071694;28;20391;-76
2021/05/30 05:30:26;;;;;;;3.47;1.80;;;435.60;1587.20;;;;;;5072131;28;20036;-77
2021/05/30 05:32:52;;;;;;;4.18;2.17;;;435.70;1561.60;;;;;;5073162;28;20052;-77
2021/05/30 05:35:18;;;;;;;2.40;1.70;;;435.70;1561.60;;;;;;5073427;28;20021;-76
2021/05/30 05:37:44;;;;;;;2.03;1.95;;;435.80;1561.60;;;;;;5072214;28;20038;-77
2021/05/30 05:40:10;;;;;;;1.73;1.63;;;435.80;1561.60;;;;;;5072140;28;20399;-77
2021/05/30 05:42:37;;;;;;;5.97;2.10;;;435.70;1561.60;;;;;;5073606;28;20017;-77
2021/05/30 05:45:07;;;;;;;1.90;1.70;;;435.80;1561.60;;;;;;5073793;28;20025;-77
2021/05/30 05:47:33;;;;;;;3.58;1.58;;;435.80;1561.60;;;;;;5072636;28;20020;-78
2021/05/30 05:49:59;;;;;;;2.78;1.17;;;435.80;1561.60;;;;;;5072108;28;20393;-78
2021/05/30 05:52:25;;;;;;;8.90;2.10;;;435.90;1561.60;;;;;;5073809;28;20032;-80
2021/05/30 05:54:51;;;;;;;2.58;2.20;;;436.00;1561.60;;;;;;5073302;28;20512;-86
2021/05/30 05:57:17;;;;;;;1.75;1.38;;;436.00;1536.00;;;;;;5072337;28;20024;-78
2021/05/30 05:59:43;;;;;;;1.60;1.40;;;436.00;1536.00;;;;;;5073463;28;20507;-77
2021/05/30 06:02:09;;;;;;;1.95;1.85;;;436.00;1536.00;;;;;;5071907;28;20033;-78
2021/05/30 06:04:35;;;;;;;1.92;1.83;;;436.10;1536.00;;;;;;5072188;28;20493;-78
2021/05/30 06:07:00;;;;;;;4.43;1.90;;;436.10;1536.00;;;;;;5071608;28;20060;-78
2021/05/30 06:09:26;;;;;;;3.28;1.35;;;460.80;1561.60;;;;;;5070544;28;20041;-78
2021/05/30 06:11:52;;;;;;;2.00;1.80;;;460.90;1561.60;;;;;;5071752;28;20024;-79
2021/05/30 06:14:18;;;;;;;2.55;1.40;;;461.00;1587.20;;;;;;5071826;28;20512;-80
2021/05/30 06:16:44;;;;;;;1.92;1.83;;;461.00;1587.20;;;;;;5071803;28;20086;-80
2021/05/30 06:19:10;;;;;;;1.90;1.75;;;461.10;1587.20;;;;;;5076050;28;20025;-79
2021/05/30 06:21:35;;;;;;;3.00;1.70;;;461.20;1587.20;;;;;;5075847;28;20085;-79
2021/05/30 06:24:02;;;;;;;5.60;2.35;;;461.20;1561.60;;;;;;5077431;28;20028;-80
2021/05/30 06:26:28;;;;;;;2.53;1.35;;;461.30;1561.60;;;;;;5077248;28;20020;-80
2021/05/30 06:28:54;;;;;;;11.32;2.10;;;461.30;1561.60;;;;;;5075946;28;20033;-79
2021/05/30 06:31:20;;;;;;;7.13;1.90;;;461.40;1587.20;;;;;;5077318;28;20122;-80
2021/05/30 06:33:46;;;;;;;4.13;1.15;;;461.40;1587.20;;;;;;5076217;28;20066;-84
2021/05/30 06:36:11;;;;;;;2.50;1.33;;;461.40;1561.60;;;;;;5075173;28;20032;-76
2021/05/30 06:38:37;;;;;;;1.33;1.17;;;461.50;1561.60;;;;;;5075265;28;20044;-77
2021/05/30 06:41:03;;;;;;;2.15;1.90;;;461.50;1561.60;;;;;;5073975;28;20082;-77
2021/05/30 06:43:29;;;;;;;6.72;1.58;;;461.60;1561.60;;;;;;5075784;28;20047;-82
2021/05/30 06:45:55;;;;;;;5.50;2.53;;;461.60;1587.20;;;;;;5076740;28;20029;-84
2021/05/30 06:48:20;;;;;;;3.17;1.75;;;486.40;1561.60;;;;;;5075927;28;20033;-81
2021/05/30 06:51:12;;;;;;;23.15;3.67;;;486.50;1561.60;;;;;;5073538;28;20534;-81
2021/05/30 06:53:35;;;;;;;21.15;2.40;;;486.60;1561.60;;;;;;5075205;28;20039;-80
2021/05/30 06:56:01;;;;;;;2.95;2.63;;;486.70;1561.60;;;;;;5076043;28;20024;-84
2021/05/30 06:58:27;;;;;;;3.67;1.55;;;486.70;1484.80;;;;;;5077984;28;20518;-84
2021/05/30 07:00:53;;;;;;;6.65;1.60;;;486.80;1510.40;;;;;;5076099;28;20052;-81
2021/05/30 07:03:29;;;;;;;5.35;1.80;;;486.90;1536.00;;;;;;5075121;28;20451;-80
2021/05/30 07:05:54;;;;;;;17.52;7.75;;;487.00;1536.00;;;;;;5075051;28;20037;-80
2021/05/30 07:08:22;;;;;;;4.97;2.95;;;487.00;1536.00;;;;;;5077159;28;20090;-81
2021/05/30 07:10:48;;;;;;;5.18;1.95;;;487.00;1484.80;;;;;;5074727;28;20025;-80
2021/05/30 07:13:14;;;;;;;1.70;1.60;;;487.10;1459.20;;;;;;5075120;28;20052;-80
2021/05/30 07:15:40;;;;;;;1.55;1.45;;;487.20;1459.20;;;;;;5074429;28;20033;-80
2021/05/30 07:18:06;;;;;;;5.93;1.55;;;487.20;1459.20;;;;;;5074789;28;20048;-80
2021/05/30 07:20:32;;;;;;;3.85;2.05;;;487.30;1459.20;;;;;;5074132;28;20048;-80
2021/05/30 07:22:57;;;;;;;2.55;1.25;;;487.30;1459.20;;;;;;5075555;28;20032;-80
2021/05/30 07:25:23;;;;;;;10.07;1.50;;;487.30;1433.60;;;;;;5075638;28;20051;-79
2021/05/30 07:27:51;;;;;;;1.65;1.52;;;;;;;;;;5076931;28;20033;-83
2021/05/30 07:30:18;;;;;;;1.48;1.40;;;;;;;;;;5075193;28;20024;-81
2021/05/30 07:32:44;;;;;;;3.08;1.38;;;;;;;;;;5075470;28;20040;-81
2021/05/30 07:35:10;;;;;;;1.52;1.42;;;487.20;1408.00;;;;;;5074665;28;20035;-81
2021/05/30 07:37:35;;;;;;;3.13;1.70;;;487.10;1408.00;;;;;;5058260;28;20480;-81
2021/05/30 07:40:01;;;;;;;1.77;1.67;;;487.10;1433.60;;;;;;5074866;28;20064;-80
2021/05/30 07:42:27;;;;;;;1.55;1.45;;;487.20;1459.20;;;;;;5076321;28;20025;-80
2021/05/30 07:44:53;;;;;;;2.92;1.40;;;487.20;1433.60;;;;;;5071619;28;20032;-80
2021/05/30 07:47:19;;;;;;;8.73;2.20;;;487.10;1459.20;;;;;;5075615;28;20033;-81
2021/05/30 07:49:44;;;;;;;1.95;1.23;;;487.30;1484.80;;;;;;5059283;28;20036;-81
2021/05/30 07:52:10;;;;;;;3.38;1.40;;;512.10;1433.60;;;;;;5075668;28;20461;-81
2021/05/30 07:54:36;;;;;;;1.83;1.67;;;512.10;1459.20;;;;;;5075241;28;20032;-81
2021/05/30 07:57:02;;;;;;;1.27;1.10;;;512.30;1433.60;;;;;;5059500;28;20032;-81
2021/05/30 07:59:28;;;;;;;1.30;1.00;;;512.50;1408.00;;;;;;5077054;28;20020;-82
2021/05/30 08:01:53;;;;;;;1.35;1.27;;;512.60;1382.40;;;;;;5076938;28;20072;-81
2021/05/30 08:04:19;;;;;;;3.55;1.80;;;512.70;1382.40;;;;;;5078416;28;20032;-81
2021/05/30 08:06:46;;;;;;;2.63;1.80;;;512.80;1356.80;;;;;;5078198;28;20035;-81
2021/05/30 08:09:11;;;;;;;3.67;1.67;;;512.80;1331.20;;;;;;5077475;28;20036;-81
2021/05/30 08:11:37;;;;;;;3.85;2.00;;;512.80;1305.60;;;;;;5076307;28;20036;-80
2021/05/30 08:14:03;;;;;;;4.70;1.88;;;512.60;1331.20;;;;;;5083292;28;20400;-81
2021/05/30 08:16:29;;;;;;;4.05;2.15;;;512.60;1356.80;;;;;;5084519;28;20029;-80
2021/05/30 08:18:55;;;;;;;15.15;2.55;;;512.80;1408.00;;;;;;5077698;28;20452;-81
2021/05/30 08:21:21;;;;;;;3.67;2.40;;;512.90;1382.40;;;;;;5075766;28;20021;-80
2021/05/30 08:23:46;;;;;;;7.10;2.70;;;512.70;1305.60;;;;;;5074293;28;20088;-81
2021/05/30 08:26:12;;;;;;;8.45;2.17;;;512.90;1382.40;;;;;;5074347;28;20036;-80
2021/05/30 08:28:38;;;;;;;3.72;2.20;;;512.80;1356.80;;;;;;5074171;28;20468;-80
2021/05/30 08:31:05;;;;;;;4.70;2.65;;;512.80;1356.80;;;;;;5073772;28;20043;-80
2021/05/30 08:33:31;;;;;;;3.67;2.38;;;537.60;1408.00;;;;;;5073342;28;20055;-80
2021/05/30 08:35:57;;;;;;;1.92;1.77;;;537.60;1356.80;;;;;;5073459;28;20051;-81
2021/05/30 08:38:24;;;;;;;6.47;2.55;;;537.70;1356.80;;;;;;5075060;28;20020;-80
2021/05/30 08:40:51;;;;;;;1.23;1.23;;;537.70;1331.20;;;;;;5074587;28;20491;-80
2021/05/30 08:43:17;;;;;;;0.95;0.95;;;537.90;1356.80;;;;;;5073724;28;20059;-80
2021/05/30 08:45:43;;;;;;;1.77;1.25;;;537.90;1331.20;;;;;;5073765;28;20499;-81
2021/05/30 08:48:09;;;;;;;1.65;1.58;;;538.20;1356.80;;;;;;5074696;28;20472;-80
2021/05/30 08:50:35;;;;;;;1.67;1.25;;;538.10;1331.20;;;;;;5073325;28;20533;-80
2021/05/30 08:53:01;;;;;;;3.80;1.65;;;538.20;1331.20;;;;;;5073095;28;20141;-80
2021/05/30 08:55:27;;;;;;;1.20;1.00;;;538.20;1280.00;;;;;;5073704;28;20032;-80
2021/05/30 08:57:53;;;;;;;0.93;0.85;;;538.30;1280.00;;;;;;5073079;28;20028;-80
2021/05/30 09:00:27;;;;;;;1.98;0.77;;;538.30;1254.40;;;;;;5074588;28;20025;-81
2021/05/30 09:03:15;;;;;;;0.70;0.70;;;538.20;1254.40;;;;;;5074529;28;20027;-80
2021/05/30 09:05:42;;;;;;;0.45;0.45;;;538.00;1203.20;;;;;;5072790;28;20028;-81
2021/05/30 09:08:08;;;;;;;1.10;0.50;;;537.80;1228.80;;;;;;5072782;28;20059;-81
2021/05/30 09:10:35;;;;;;;0.88;0.65;;;537.70;1254.40;;;;;;5074463;28;20547;-81
2021/05/30 09:13:08;;;;;;;6.95;0.98;;;537.60;1203.20;;;;;;5072697;28;20047;-81
2021/05/30 09:18:27;;;;;;;4.35;1.00;;;512.90;1254.40;;;;;;5074223;28;20017;-80
2021/05/30 09:20:55;;;;;;;1.33;0.85;;;537.60;1305.60;;;;;;5072318;28;20033;-80
2021/05/30 09:23:40;;;;;;;0.60;0.60;;;537.70;1254.40;;;;;;5074382;28;20499;-80
2021/05/30 09:26:24;;;;;;;1.20;1.10;;;537.90;1305.60;;;;;;5072847;28;20025;-81
2021/05/30 09:29:09;;;;;;;3.25;2.92;;;538.20;1228.80;;;;;;5073063;28;20035;-80
2021/05/30 09:31:56;;;;;;;1.58;1.45;;;538.30;1280.00;;;;;;5072879;28;20024;-80
2021/05/30 09:34:29;;;;;;;18.38;2.40;;;538.30;1305.60;;;;;;5071639;28;20040;-78
2021/05/30 09:36:55;;;;;;;2.15;0.80;;;538.50;1305.60;;;;;;5072750;28;20115;-79
2021/05/30 09:39:46;;;;;;;0.60;0.60;;;538.30;1254.40;;;;;;5072101;28;20511;-79
2021/05/30 09:42:31;;;;;;;0.40;0.40;;;538.20;1177.60;;;;;;5066613;28;20047;-77
2021/05/30 09:44:59;;;;;;;0.55;0.40;;;538.20;1126.40;;;;;;5072653;28;20104;-78
2021/05/30 09:47:51;;;;;;;1.30;1.00;;;538.10;1177.60;;;;;;5072046;28;20046;-79
2021/05/30 09:50:19;;;;;;;2.42;0.80;;;538.10;1203.20;;;;;;5069874;28;20043;-86
2021/05/30 09:52:52;;;;;;;1.52;1.10;;;538.20;1228.80;;;;;;5073271;28;20032;-86
2021/05/30 09:55:19;;;;;;;8.00;1.25;;;538.20;1228.80;;;;;;5074313;28;20025;-91
2021/05/30 09:58:05;;;;;;;3.75;1.13;;;538.20;1228.80;;;;;;5073880;28;20072;-88
2021/05/30 10:00:35;;;;;;;9.25;1.27;;;538.20;1254.40;;;;;;5073489;28;20060;-83
2021/05/30 10:03:01;;;;;;;5.57;1.07;;;538.20;1228.80;;;;;;5073342;28;20480;-85
2021/05/30 10:05:27;;;;;;;3.33;2.42;;;538.20;1280.00;;;;;;5075079;28;20028;-87
2021/05/30 10:07:54;;;;;;;1.85;1.25;;;538.30;1228.80;;;;;;5074261;28;20043;-84
2021/05/30 10:10:20;;;;;;;0.82;0.80;;;538.30;1228.80;;;;;;5072650;28;20114;-90
2021/05/30 10:12:47;;;;;;;0.60;0.60;;;538.40;1152.00;;;;;;5073406;28;20032;-83
2021/05/30 10:15:13;;;;;;;3.15;1.52;;;538.40;1152.00;;;;;;5072860;28;20098;-82
2021/05/30 10:17:41;;;;;;;2.80;1.50;;;563.20;1254.40;;;;;;5073455;28;20058;-85
2021/05/30 10:20:21;;;;;;;23.67;2.75;;;563.50;1305.60;;;;;;5075513;28;20100;-80
2021/05/30 10:22:57;;;;;;;53.55;3.63;;;563.80;1280.00;;;;;;5073699;28;20476;-83
2021/05/30 10:25:32;;;;;;;1.60;0.90;;;563.80;1254.40;;;;;;5072336;28;20075;-81
2021/05/30 10:28:20;;;;;;;0.63;0.63;;;563.60;1203.20;;;;;;5072469;28;20024;-81
2021/05/30 10:31:10;;;;;;;4.80;2.13;;;563.70;1203.20;;;;;;5072597;28;20025;-86
2021/05/30 10:33:36;;;;;;;6.15;1.80;;;563.80;1203.20;;;;;;5072026;28;20045;-83
2021/05/30 10:36:14;;;;;;;4.97;0.95;;;563.80;1203.20;;;;;;5072404;28;20380;-86
2021/05/30 10:38:44;;;;;;;2.80;0.68;;;564.00;1203.20;;;;;;5073370;28;20115;-82
2021/05/30 10:41:15;;;;;;;0.35;0.35;;;588.80;1177.60;;;;;;5072340;28;20024;-78
2021/05/30 10:43:42;;;;;;;1.75;0.40;;;564.10;1177.60;;;;;;5051666;28;20044;-78
2021/05/30 10:46:11;;;;;;;33.45;2.00;;;564.10;1177.60;;;;;;5068801;28;20025;-77
2021/05/30 10:48:39;;;;;;;18.90;1.20;;;564.00;1100.80;;;;;;5052467;28;20056;-78
2021/05/30 10:51:15;;;;;;;15.82;2.83;;;563.90;1152.00;;;;;;5078286;28;20047;-77
2021/05/30 10:53:51;;;;;;;12.32;0.63;;;564.10;1228.80;;;;;;5067922;28;20123;-81
2021/05/30 10:56:23;;;;;;;6.40;1.17;;;564.10;1126.40;;;;;;5072430;28;20070;-82
2021/05/30 10:59:04;;;;;;;3.50;0.47;;;588.80;1126.40;;;;;;5073266;28;20499;-83
2021/05/30 11:01:38;;;;;;;3.90;0.80;;;588.80;1075.20;;;;;;5073049;28;20025;-81
2021/05/30 11:04:29;;;;;;;0.63;0.35;;;588.90;1177.60;;;;;;5072951;28;20020;-77
2021/05/30 11:06:55;;;;;;;17.20;0.90;;;588.90;1126.40;;;;;;5078317;28;20025;-83
2021/05/30 11:09:42;;;;;;;12.48;1.58;;;588.90;1126.40;;;;;;5076383;28;20164;-82
2021/05/30 11:12:26;;;;;;;11.35;0.80;;;588.90;1152.00;;;;;;5062926;28;20377;-83
2021/05/30 11:15:21;;;;;;;3.20;0.80;;;588.90;1126.40;;;;;;5075604;28;20040;-81
2021/05/30 11:17:53;;;;;;;11.20;2.58;;;588.80;1126.40;;;;;;5075458;28;20021;-85
2021/05/30 11:20:36;;;;;;;1.60;0.93;;;588.80;1126.40;;;;;;5075714;28;20134;-82
2021/05/30 11:23:07;;;;;;;0.50;0.50;;;588.80;1126.40;;;;;;5075741;28;20031;-81
2021/05/30 11:25:42;;;;;;;2.78;0.93;;;588.80;1126.40;;;;;;5077050;28;20048;-89
2021/05/30 11:28:30;;;;;;;1.10;0.77;;;588.90;1126.40;;;;;;5076726;28;20021;-80
2021/05/30 11:30:59;;;;;;;1.65;0.63;;;588.90;1152.00;;;;;;5075767;28;20029;-84
2021/05/30 11:33:34;;;;;;;1.23;1.13;;;588.90;1152.00;;;;;;5074979;28;20049;-80
2021/05/30 11:36:04;;;;;;;0.65;0.65;;;588.80;1126.40;;;;;;5075530;28;20105;-83
2021/05/30 11:38:39;;;;;;;8.02;0.98;;;588.80;1152.00;;;;;;5078657;28;20031;-83
2021/05/30 11:41:14;;;;;;;3.03;0.82;;;588.90;1177.60;;;;;;5076163;28;20484;-83
2021/05/30 11:43:56;;;;;;;3.88;0.88;;;588.80;1075.20;;;;;;5076720;28;20028;-81
2021/05/30 11:46:26;;;;;;;1.75;0.68;;;589.10;1177.60;;;;;;5075141;28;20036;-82
2021/05/30 11:49:18;;;;;;;2.53;0.55;;;589.20;1152.00;;;;;;5077125;28;20082;-81
2021/05/30 11:51:51;;;;;;;0.60;0.60;;;589.30;1126.40;;;;;;5076409;28;20067;-82
2021/05/30 11:54:20;;;;;;;0.95;0.68;;;589.40;1100.80;;;;;;5074879;28;20107;-82
2021/05/30 11:56:51;;;;;;;1.40;0.90;;;589.20;1075.20;;;;;;5074590;28;20055;-84
2021/05/30 11:59:26;;;;;;;9.02;0.82;;;589.10;1126.40;;;;;;5075200;28;20029;-83
2021/05/30 12:01:52;;;;;;;1.23;0.70;;;589.10;1100.80;;;;;;5076094;28;20051;-83
2021/05/30 12:04:32;;;;;;;3.90;0.80;;;589.20;1126.40;;;;;;5076071;28;20373;-81
2021/05/30 12:06:59;;;;;;;5.03;1.30;;;589.20;1126.40;;;;;;5075010;28;20021;-82
2021/05/30 12:09:45;;;;;;;3.53;0.73;;;589.20;1100.80;;;;;;5075777;28;20083;-78
2021/05/30 12:12:55;;;;;;;4.10;0.82;;;589.10;1100.80;;;;;;5068691;28;20132;-79
2021/05/30 12:15:26;;;;;;;6.07;0.90;;;589.10;1126.40;;;;;;5046829;28;20377;-77
2021/05/30 12:18:07;;;;;;;7.93;1.55;;;589.10;1126.40;;;;;;5074682;28;20028;-80
2021/05/30 12:20:37;;;;;;;;;;;589.10;1152.00;;;;;;5075541;28;20021;-79
2021/05/30 12:23:13;;;;;;;3.60;0.73;;;589.10;1152.00;;;;;;5074958;28;19930;-78
2021/05/30 12:25:51;;;;;;;3.80;1.00;;;589.10;1126.40;;;;;;5073462;28;20029;-78
2021/05/30 12:28:19;;;;;;;1.33;0.60;;;589.00;1126.40;;;;;;5074971;28;20016;-78
2021/05/30 12:30:53;;;;;;;14.50;1.73;;;589.00;1126.40;;;;;;5072960;28;20388;-77
2021/05/30 12:33:20;;;;;;;0.47;0.47;;;589.00;1126.40;;;;;;5074534;28;20489;-77